Bexar, Arkansas
Current Conditions -  °F | °C
As of 4:53 AM on Sunday 23 Nov 2014 (Local Time) from KBPK Reporting Station
Light Rain Light Rain  
Wind Chill: 54°   Ceiling: 1800
Heat Index: 54°   Visibility: 6mi
Dew Point: 52°   Wind: 6mph
Humidity: 93%   Direction: 150°SSE
Pressure: 29.69"   Gusts: NA
Location:  36.29°N, 92°W
Report Text: KBPK 231053Z AUTO 15005KT 6SM -RA BR BKN018 OVC029 12/11 A2969 RMK AO2 RAB24 SLP052 P0002 T01220111
Loading
Personal Weather Stations






























Interactive Weather Map New forecast layout! Learn more

10-Day Weather Forecast

Advertisements
Track Severe Weather on mobile